Terminal Aerodrome Forecast
Issued by NWS

Home | Current Version | Previous Version | Graphics & Text | Print | Product List | Glossary Off
Versions: 1 2 3 4 5 6 7 8 9 10 11 12 13 14

866
FTUS43 KUNR 100521
TAFGCC
TAF
KGCC 100521Z 1006/1106 24017KT P6SM SCT200
     FM101800 30011KT P6SM SCT200=

USA.gov is the U.S. government's official web portal to all federal, state and local government web resources and services.